sensor_id;sensor_type;location;lat;lon;timestamp;P1;durP1;ratioP1;P2;durP2;ratioP2
76115;SDS011;64847;45.778;12.802;2023-07-13T00:01:42;3.15;;;2.90;;
76115;SDS011;64847;45.778;12.802;2023-07-13T00:04:07;3.40;;;3.00;;
76115;SDS011;64847;45.778;12.802;2023-07-13T00:06:33;3.03;;;2.83;;
76115;SDS011;64847;45.778;12.802;2023-07-13T00:09:00;3.35;;;2.90;;
76115;SDS011;64847;45.778;12.802;2023-07-13T00:11:26;5.32;;;3.40;;
76115;SDS011;64847;45.778;12.802;2023-07-13T00:13:52;5.97;;;3.50;;
76115;SDS011;64847;45.778;12.802;2023-07-13T01:26:50;1.33;;;1.20;;
76115;SDS011;64847;45.778;12.802;2023-07-13T01:29:15;1.20;;;1.20;;
76115;SDS011;64847;45.778;12.802;2023-07-13T01:31:41;1.00;;;1.00;;
76115;SDS011;64847;45.778;12.802;2023-07-13T01:35:40;1.38;;;1.20;;
76115;SDS011;64847;45.778;12.802;2023-07-13T01:38:06;1.52;;;1.15;;
76115;SDS011;64847;45.778;12.802;2023-07-13T01:40:34;1.13;;;1.10;;
76115;SDS011;64847;45.778;12.802;2023-07-13T01:43:03;1.75;;;1.23;;
76115;SDS011;64847;45.778;12.802;2023-07-13T01:45:29;1.33;;;1.25;;
76115;SDS011;64847;45.778;12.802;2023-07-13T01:47:57;1.45;;;1.35;;
76115;SDS011;64847;45.778;12.802;2023-07-13T01:57:13;1.63;;;1.45;;
76115;SDS011;64847;45.778;12.802;2023-07-13T01:59:50;1.48;;;1.38;;
76115;SDS011;64847;45.778;12.802;2023-07-13T02:02:18;1.40;;;1.30;;
76115;SDS011;64847;45.778;12.802;2023-07-13T02:04:45;1.20;;;1.20;;
76115;SDS011;64847;45.778;12.802;2023-07-13T02:07:10;1.23;;;1.23;;
76115;SDS011;64847;45.778;12.802;2023-07-13T02:09:36;1.13;;;1.13;;
76115;SDS011;64847;45.778;12.802;2023-07-13T02:12:02;1.50;;;1.40;;
76115;SDS011;64847;45.778;12.802;2023-07-13T02:14:27;1.27;;;1.20;;
76115;SDS011;64847;45.778;12.802;2023-07-13T02:16:53;1.60;;;1.15;;
76115;SDS011;64847;45.778;12.802;2023-07-13T02:19:18;1.20;;;1.20;;
76115;SDS011;64847;45.778;12.802;2023-07-13T02:21:44;1.85;;;1.67;;
76115;SDS011;64847;45.778;12.802;2023-07-13T02:24:13;1.83;;;1.48;;
76115;SDS011;64847;45.778;12.802;2023-07-13T02:26:42;1.67;;;1.50;;
76115;SDS011;64847;45.778;12.802;2023-07-13T02:29:08;1.40;;;1.30;;
76115;SDS011;64847;45.778;12.802;2023-07-13T02:31:34;1.38;;;1.30;;
76115;SDS011;64847;45.778;12.802;2023-07-13T02:34:00;1.30;;;1.30;;
76115;SDS011;64847;45.778;12.802;2023-07-13T02:36:26;1.48;;;1.40;;
76115;SDS011;64847;45.778;12.802;2023-07-13T02:38:52;1.45;;;1.23;;
76115;SDS011;64847;45.778;12.802;2023-07-13T02:41:18;1.38;;;1.30;;
76115;SDS011;64847;45.778;12.802;2023-07-13T02:43:43;1.70;;;1.60;;
76115;SDS011;64847;45.778;12.802;2023-07-13T02:46:09;1.63;;;1.52;;
76115;SDS011;64847;45.778;12.802;2023-07-13T02:48:35;2.40;;;2.20;;
76115;SDS011;64847;45.778;12.802;2023-07-13T02:51:01;1.48;;;1.38;;
76115;SDS011;64847;45.778;12.802;2023-07-13T02:53:27;2.00;;;1.80;;
76115;SDS011;64847;45.778;12.802;2023-07-13T02:55:52;1.95;;;1.40;;
76115;SDS011;64847;45.778;12.802;2023-07-13T02:58:18;1.60;;;1.50;;
76115;SDS011;64847;45.778;12.802;2023-07-13T03:00:44;1.77;;;1.67;;
76115;SDS011;64847;45.778;12.802;2023-07-13T03:03:11;4.00;;;1.88;;
76115;SDS011;64847;45.778;12.802;2023-07-13T03:05:40;2.42;;;2.22;;
76115;SDS011;64847;45.778;12.802;2023-07-13T03:08:07;2.85;;;2.33;;
76115;SDS011;64847;45.778;12.802;2023-07-13T03:10:33;4.40;;;2.70;;
76115;SDS011;64847;45.778;12.802;2023-07-13T03:13:01;4.10;;;2.72;;
76115;SDS011;64847;45.778;12.802;2023-07-13T03:15:27;3.08;;;2.72;;
76115;SDS011;64847;45.778;12.802;2023-07-13T03:17:55;4.40;;;2.83;;
76115;SDS011;64847;45.778;12.802;2023-07-13T03:20:20;3.30;;;2.95;;
76115;SDS011;64847;45.778;12.802;2023-07-13T03:22:46;3.55;;;2.80;;
76115;SDS011;64847;45.778;12.802;2023-07-13T03:25:12;3.93;;;3.20;;
76115;SDS011;64847;45.778;12.802;2023-07-13T03:27:37;4.55;;;3.25;;
76115;SDS011;64847;45.778;12.802;2023-07-13T03:30:06;5.22;;;3.03;;
76115;SDS011;64847;45.778;12.802;2023-07-13T03:32:32;3.03;;;2.60;;
76115;SDS011;64847;45.778;12.802;2023-07-13T03:34:58;2.78;;;2.40;;
76115;SDS011;64847;45.778;12.802;2023-07-13T03:37:24;3.20;;;2.90;;
76115;SDS011;64847;45.778;12.802;2023-07-13T03:39:49;3.83;;;2.80;;
76115;SDS011;64847;45.778;12.802;2023-07-13T03:42:15;3.00;;;2.70;;
76115;SDS011;64847;45.778;12.802;2023-07-13T03:44:41;3.10;;;2.45;;
76115;SDS011;64847;45.778;12.802;2023-07-13T03:47:07;3.33;;;2.70;;
76115;SDS011;64847;45.778;12.802;2023-07-13T03:49:34;2.50;;;2.30;;
76115;SDS011;64847;45.778;12.802;2023-07-13T03:52:00;2.80;;;2.50;;
76115;SDS011;64847;45.778;12.802;2023-07-13T03:54:25;5.68;;;2.80;;
76115;SDS011;64847;45.778;12.802;2023-07-13T03:56:51;3.35;;;2.55;;
76115;SDS011;64847;45.778;12.802;2023-07-13T03:59:16;4.90;;;2.80;;
76115;SDS011;64847;45.778;12.802;2023-07-13T04:01:42;2.95;;;2.42;;
76115;SDS011;64847;45.778;12.802;2023-07-13T04:04:08;3.30;;;2.60;;
76115;SDS011;64847;45.778;12.802;2023-07-13T04:06:34;2.50;;;2.35;;
76115;SDS011;64847;45.778;12.802;2023-07-13T04:09:00;4.05;;;2.33;;
76115;SDS011;64847;45.778;12.802;2023-07-13T04:11:28;3.13;;;2.25;;
76115;SDS011;64847;45.778;12.802;2023-07-13T04:13:54;4.22;;;2.20;;
76115;SDS011;64847;45.778;12.802;2023-07-13T04:16:20;3.25;;;2.35;;
76115;SDS011;64847;45.778;12.802;2023-07-13T04:18:46;5.88;;;2.40;;
76115;SDS011;64847;45.778;12.802;2023-07-13T04:21:12;3.33;;;2.30;;
76115;SDS011;64847;45.778;12.802;2023-07-13T04:23:39;2.78;;;2.35;;
76115;SDS011;64847;45.778;12.802;2023-07-13T04:26:04;3.63;;;2.33;;
76115;SDS011;64847;45.778;12.802;2023-07-13T04:28:31;2.30;;;2.20;;
76115;SDS011;64847;45.778;12.802;2023-07-13T04:30:56;3.53;;;2.33;;
76115;SDS011;64847;45.778;12.802;2023-07-13T04:33:22;3.90;;;2.72;;
76115;SDS011;64847;45.778;12.802;2023-07-13T04:35:51;2.55;;;2.10;;
76115;SDS011;64847;45.778;12.802;2023-07-13T04:38:25;2.40;;;2.20;;
76115;SDS011;64847;45.778;12.802;2023-07-13T04:40:54;2.90;;;2.33;;
76115;SDS011;64847;45.778;12.802;2023-07-13T04:43:20;3.60;;;2.63;;
76115;SDS011;64847;45.778;12.802;2023-07-13T04:45:46;2.85;;;2.33;;
76115;SDS011;64847;45.778;12.802;2023-07-13T04:48:11;2.45;;;2.25;;
76115;SDS011;64847;45.778;12.802;2023-07-13T04:51:08;3.10;;;2.30;;
76115;SDS011;64847;45.778;12.802;2023-07-13T04:53:34;3.45;;;2.28;;
76115;SDS011;64847;45.778;12.802;2023-07-13T04:56:00;2.85;;;2.08;;
76115;SDS011;64847;45.778;12.802;2023-07-13T04:58:27;2.88;;;2.30;;
76115;SDS011;64847;45.778;12.802;2023-07-13T05:00:53;2.45;;;2.25;;
76115;SDS011;64847;45.778;12.802;2023-07-13T05:03:25;3.70;;;2.15;;
76115;SDS011;64847;45.778;12.802;2023-07-13T05:06:02;4.53;;;2.45;;
76115;SDS011;64847;45.778;12.802;2023-07-13T05:08:29;2.90;;;2.30;;
76115;SDS011;64847;45.778;12.802;2023-07-13T05:10:54;2.92;;;2.53;;
76115;SDS011;64847;45.778;12.802;2023-07-13T05:13:20;2.70;;;2.42;;
76115;SDS011;64847;45.778;12.802;2023-07-13T05:15:47;2.40;;;2.20;;
76115;SDS011;64847;45.778;12.802;2023-07-13T05:18:20;2.40;;;2.20;;
76115;SDS011;64847;45.778;12.802;2023-07-13T05:20:45;2.97;;;2.25;;
76115;SDS011;64847;45.778;12.802;2023-07-13T05:23:11;2.63;;;2.28;;
76115;SDS011;64847;45.778;12.802;2023-07-13T05:25:36;2.08;;;1.98;;
76115;SDS011;64847;45.778;12.802;2023-07-13T05:28:02;2.80;;;2.30;;
76115;SDS011;64847;45.778;12.802;2023-07-13T05:30:27;1.92;;;1.80;;
76115;SDS011;64847;45.778;12.802;2023-07-13T05:32:52;2.40;;;2.20;;
76115;SDS011;64847;45.778;12.802;2023-07-13T05:35:18;2.28;;;2.08;;
76115;SDS011;64847;45.778;12.802;2023-07-13T05:37:43;2.60;;;2.40;;
76115;SDS011;64847;45.778;12.802;2023-07-13T05:40:09;2.65;;;2.35;;
76115;SDS011;64847;45.778;12.802;2023-07-13T05:42:34;2.65;;;2.45;;
76115;SDS011;64847;45.778;12.802;2023-07-13T05:45:00;2.00;;;1.83;;
76115;SDS011;64847;45.778;12.802;2023-07-13T05:47:25;2.88;;;2.13;;
76115;SDS011;64847;45.778;12.802;2023-07-13T05:49:51;2.33;;;2.13;;
76115;SDS011;64847;45.778;12.802;2023-07-13T05:52:16;2.30;;;2.10;;
76115;SDS011;64847;45.778;12.802;2023-07-13T05:54:42;2.35;;;2.00;;
76115;SDS011;64847;45.778;12.802;2023-07-13T05:57:07;2.30;;;2.10;;
76115;SDS011;64847;45.778;12.802;2023-07-13T05:59:33;2.70;;;2.50;;
76115;SDS011;64847;45.778;12.802;2023-07-13T06:01:58;2.22;;;2.13;;
76115;SDS011;64847;45.778;12.802;2023-07-13T06:04:24;2.20;;;2.00;;
76115;SDS011;64847;45.778;12.802;2023-07-13T06:06:49;2.25;;;2.10;;
76115;SDS011;64847;45.778;12.802;2023-07-13T06:09:15;2.70;;;2.10;;
76115;SDS011;64847;45.778;12.802;2023-07-13T06:11:40;2.17;;;2.08;;
76115;SDS011;64847;45.778;12.802;2023-07-13T06:14:05;1.98;;;1.88;;
76115;SDS011;64847;45.778;12.802;2023-07-13T06:16:31;2.00;;;1.90;;
76115;SDS011;64847;45.778;12.802;2023-07-13T06:18:57;2.17;;;2.05;;
76115;SDS011;64847;45.778;12.802;2023-07-13T06:21:23;2.30;;;2.10;;
76115;SDS011;64847;45.778;12.802;2023-07-13T06:23:49;2.15;;;2.05;;
76115;SDS011;64847;45.778;12.802;2023-07-13T06:26:16;2.47;;;2.28;;
76115;SDS011;64847;45.778;12.802;2023-07-13T06:28:42;2.03;;;1.92;;
76115;SDS011;64847;45.778;12.802;2023-07-13T06:31:09;2.60;;;2.30;;
76115;SDS011;64847;45.778;12.802;2023-07-13T06:33:35;2.75;;;2.53;;
76115;SDS011;64847;45.778;12.802;2023-07-13T06:36:02;3.92;;;2.55;;
76115;SDS011;64847;45.778;12.802;2023-07-13T06:38:28;2.67;;;2.25;;
76115;SDS011;64847;45.778;12.802;2023-07-13T06:40:54;2.28;;;2.08;;
76115;SDS011;64847;45.778;12.802;2023-07-13T06:43:19;2.33;;;2.13;;
76115;SDS011;64847;45.778;12.802;2023-07-13T06:45:46;2.45;;;2.25;;
76115;SDS011;64847;45.778;12.802;2023-07-13T06:48:14;2.53;;;2.13;;
76115;SDS011;64847;45.778;12.802;2023-07-13T06:50:42;2.75;;;2.30;;
76115;SDS011;64847;45.778;12.802;2023-07-13T06:53:08;2.67;;;2.30;;
76115;SDS011;64847;45.778;12.802;2023-07-13T06:55:34;2.28;;;2.08;;
76115;SDS011;64847;45.778;12.802;2023-07-13T06:58:00;2.03;;;1.90;;
76115;SDS011;64847;45.778;12.802;2023-07-13T07:00:25;2.30;;;2.10;;
76115;SDS011;64847;45.778;12.802;2023-07-13T07:02:51;2.13;;;1.92;;
76115;SDS011;64847;45.778;12.802;2023-07-13T07:05:16;2.10;;;2.00;;
76115;SDS011;64847;45.778;12.802;2023-07-13T07:07:42;2.08;;;1.98;;
76115;SDS011;64847;45.778;12.802;2023-07-13T07:10:08;2.28;;;2.08;;
76115;SDS011;64847;45.778;12.802;2023-07-13T07:12:33;2.40;;;2.08;;
76115;SDS011;64847;45.778;12.802;2023-07-13T07:14:59;2.30;;;2.13;;
76115;SDS011;64847;45.778;12.802;2023-07-13T07:17:24;2.28;;;2.10;;
76115;SDS011;64847;45.778;12.802;2023-07-13T07:19:51;1.90;;;1.80;;
76115;SDS011;64847;45.778;12.802;2023-07-13T07:22:16;2.00;;;1.90;;
76115;SDS011;64847;45.778;12.802;2023-07-13T07:24:41;2.25;;;2.15;;
76115;SDS011;64847;45.778;12.802;2023-07-13T07:27:07;2.30;;;2.15;;
76115;SDS011;64847;45.778;12.802;2023-07-13T07:29:33;2.17;;;2.08;;
76115;SDS011;64847;45.778;12.802;2023-07-13T07:31:59;2.60;;;2.40;;
76115;SDS011;64847;45.778;12.802;2023-07-13T07:34:25;2.22;;;2.00;;
76115;SDS011;64847;45.778;12.802;2023-07-13T07:36:50;2.15;;;2.05;;
76115;SDS011;64847;45.778;12.802;2023-07-13T07:39:16;2.38;;;2.20;;
76115;SDS011;64847;45.778;12.802;2023-07-13T07:41:41;2.00;;;1.90;;
76115;SDS011;64847;45.778;12.802;2023-07-13T07:44:07;2.35;;;2.25;;
76115;SDS011;64847;45.778;12.802;2023-07-13T07:46:34;2.28;;;2.10;;
76115;SDS011;64847;45.778;12.802;2023-07-13T07:49:00;2.40;;;2.20;;
76115;SDS011;64847;45.778;12.802;2023-07-13T07:51:25;2.47;;;1.80;;
76115;SDS011;64847;45.778;12.802;2023-07-13T07:53:51;2.30;;;2.13;;
76115;SDS011;64847;45.778;12.802;2023-07-13T07:56:16;2.08;;;1.80;;
76115;SDS011;64847;45.778;12.802;2023-07-13T07:58:42;2.63;;;2.30;;
76115;SDS011;64847;45.778;12.802;2023-07-13T08:01:08;2.13;;;2.03;;
76115;SDS011;64847;45.778;12.802;2023-07-13T08:03:33;2.85;;;1.95;;
76115;SDS011;64847;45.778;12.802;2023-07-13T08:05:59;1.88;;;1.77;;
76115;SDS011;64847;45.778;12.802;2023-07-13T08:08:25;2.55;;;2.35;;
76115;SDS011;64847;45.778;12.802;2023-07-13T08:10:50;2.08;;;1.98;;
76115;SDS011;64847;45.778;12.802;2023-07-13T08:13:16;2.05;;;1.95;;
76115;SDS011;64847;45.778;12.802;2023-07-13T08:15:41;2.15;;;1.92;;
76115;SDS011;64847;45.778;12.802;2023-07-13T08:18:07;2.28;;;2.05;;
76115;SDS011;64847;45.778;12.802;2023-07-13T08:20:36;2.30;;;2.10;;
76115;SDS011;64847;45.778;12.802;2023-07-13T08:23:03;1.95;;;1.85;;
76115;SDS011;64847;45.778;12.802;2023-07-13T08:25:29;2.47;;;2.28;;
76115;SDS011;64847;45.778;12.802;2023-07-13T08:27:54;2.00;;;1.90;;
76115;SDS011;64847;45.778;12.802;2023-07-13T08:30:20;1.90;;;1.80;;
76115;SDS011;64847;45.778;12.802;2023-07-13T08:32:45;1.98;;;1.88;;
76115;SDS011;64847;45.778;12.802;2023-07-13T08:35:10;2.17;;;1.98;;
76115;SDS011;64847;45.778;12.802;2023-07-13T08:37:36;2.63;;;2.42;;
76115;SDS011;64847;45.778;12.802;2023-07-13T08:40:02;1.80;;;1.70;;
76115;SDS011;64847;45.778;12.802;2023-07-13T08:45:23;2.33;;;2.05;;
76115;SDS011;64847;45.778;12.802;2023-07-13T08:48:00;1.90;;;1.80;;
76115;SDS011;64847;45.778;12.802;2023-07-13T08:50:30;1.95;;;1.85;;
76115;SDS011;64847;45.778;12.802;2023-07-13T08:52:59;2.05;;;1.88;;
76115;SDS011;64847;45.778;12.802;2023-07-13T08:55:29;2.15;;;1.90;;
76115;SDS011;64847;45.778;12.802;2023-07-13T08:58:03;2.35;;;2.15;;
76115;SDS011;64847;45.778;12.802;2023-07-13T09:00:34;2.05;;;1.90;;
76115;SDS011;64847;45.778;12.802;2023-07-13T09:03:07;2.10;;;2.00;;
76115;SDS011;64847;45.778;12.802;2023-07-13T09:05:45;4.13;;;2.20;;
76115;SDS011;64847;45.778;12.802;2023-07-13T09:16:49;1.98;;;1.88;;
76115;SDS011;64847;45.778;12.802;2023-07-13T09:19:18;2.50;;;2.30;;
76115;SDS011;64847;45.778;12.802;2023-07-13T09:21:48;2.30;;;2.20;;
76115;SDS011;64847;45.778;12.802;2023-07-13T09:26:47;3.00;;;2.00;;
76115;SDS011;64847;45.778;12.802;2023-07-13T09:29:21;2.20;;;2.10;;
76115;SDS011;64847;45.778;12.802;2023-07-13T09:31:53;1.90;;;1.80;;
76115;SDS011;64847;45.778;12.802;2023-07-13T09:34:19;1.80;;;1.70;;
76115;SDS011;64847;45.778;12.802;2023-07-13T09:36:45;2.45;;;1.98;;
76115;SDS011;64847;45.778;12.802;2023-07-13T09:39:17;2.10;;;2.00;;
76115;SDS011;64847;45.778;12.802;2023-07-13T09:41:54;2.30;;;2.10;;
76115;SDS011;64847;45.778;12.802;2023-07-13T09:44:42;2.00;;;1.90;;
76115;SDS011;64847;45.778;12.802;2023-07-13T09:47:15;2.38;;;1.90;;
76115;SDS011;64847;45.778;12.802;2023-07-13T09:49:48;1.77;;;1.67;;
76115;SDS011;64847;45.778;12.802;2023-07-13T09:52:20;1.90;;;1.80;;
76115;SDS011;64847;45.778;12.802;2023-07-13T09:54:50;2.25;;;2.00;;
76115;SDS011;64847;45.778;12.802;2023-07-13T09:57:17;2.08;;;1.92;;
76115;SDS011;64847;45.778;12.802;2023-07-13T09:59:44;1.80;;;1.70;;
76115;SDS011;64847;45.778;12.802;2023-07-13T10:05:01;2.47;;;1.80;;
76115;SDS011;64847;45.778;12.802;2023-07-13T10:07:35;2.05;;;1.85;;
76115;SDS011;64847;45.778;12.802;2023-07-13T10:10:12;2.00;;;1.90;;
76115;SDS011;64847;45.778;12.802;2023-07-13T10:12:45;1.65;;;1.60;;
76115;SDS011;64847;45.778;12.802;2023-07-13T10:15:18;2.03;;;1.90;;
76115;SDS011;64847;45.778;12.802;2023-07-13T10:17:45;2.00;;;1.90;;
76115;SDS011;64847;45.778;12.802;2023-07-13T10:20:10;2.00;;;1.90;;
76115;SDS011;64847;45.778;12.802;2023-07-13T10:25:26;1.92;;;1.83;;
76115;SDS011;64847;45.778;12.802;2023-07-13T10:27:58;2.10;;;2.00;;
76115;SDS011;64847;45.778;12.802;2023-07-13T10:30:28;1.75;;;1.65;;
76115;SDS011;64847;45.778;12.802;2023-07-13T10:33:01;2.92;;;1.70;;
76115;SDS011;64847;45.778;12.802;2023-07-13T10:35:28;1.92;;;1.80;;
76115;SDS011;64847;45.778;12.802;2023-07-13T10:38:02;1.88;;;1.77;;
76115;SDS011;64847;45.778;12.802;2023-07-13T10:40:35;2.15;;;2.05;;
76115;SDS011;64847;45.778;12.802;2023-07-13T10:43:05;1.80;;;1.70;;
76115;SDS011;64847;45.778;12.802;2023-07-13T10:45:34;2.22;;;2.03;;
76115;SDS011;64847;45.778;12.802;2023-07-13T10:48:01;1.95;;;1.85;;
76115;SDS011;64847;45.778;12.802;2023-07-13T10:50:28;1.98;;;1.88;;
76115;SDS011;64847;45.778;12.802;2023-07-13T10:52:55;2.35;;;2.10;;
76115;SDS011;64847;45.778;12.802;2023-07-13T10:55:32;2.30;;;2.20;;
76115;SDS011;64847;45.778;12.802;2023-07-13T10:58:03;2.35;;;2.15;;
76115;SDS011;64847;45.778;12.802;2023-07-13T11:03:20;2.15;;;2.05;;
76115;SDS011;64847;45.778;12.802;2023-07-13T11:05:48;2.33;;;2.15;;
76115;SDS011;64847;45.778;12.802;2023-07-13T11:08:20;2.22;;;2.03;;
76115;SDS011;64847;45.778;12.802;2023-07-13T11:10:57;2.22;;;2.00;;
76115;SDS011;64847;45.778;12.802;2023-07-13T11:18:44;3.58;;;1.90;;
76115;SDS011;64847;45.778;12.802;2023-07-13T11:21:14;2.08;;;1.98;;
76115;SDS011;64847;45.778;12.802;2023-07-13T11:23:42;2.28;;;2.08;;
76115;SDS011;64847;45.778;12.802;2023-07-13T11:31:57;2.00;;;1.90;;
76115;SDS011;64847;45.778;12.802;2023-07-13T11:34:33;2.22;;;2.13;;
76115;SDS011;64847;45.778;12.802;2023-07-13T11:37:00;1.83;;;1.73;;
76115;SDS011;64847;45.778;12.802;2023-07-13T11:39:34;1.75;;;1.65;;
76115;SDS011;64847;45.778;12.802;2023-07-13T11:42:02;2.22;;;2.13;;
76115;SDS011;64847;45.778;12.802;2023-07-13T11:44:30;2.28;;;2.08;;
76115;SDS011;64847;45.778;12.802;2023-07-13T11:46:58;2.15;;;2.05;;
76115;SDS011;64847;45.778;12.802;2023-07-13T11:49:26;2.45;;;2.33;;
76115;SDS011;64847;45.778;12.802;2023-07-13T11:51:54;2.13;;;2.00;;
76115;SDS011;64847;45.778;12.802;2023-07-13T11:56:55;2.70;;;2.50;;
76115;SDS011;64847;45.778;12.802;2023-07-13T11:59:25;2.25;;;2.10;;
76115;SDS011;64847;45.778;12.802;2023-07-13T12:01:51;1.80;;;1.77;;
76115;SDS011;64847;45.778;12.802;2023-07-13T12:04:22;2.22;;;2.13;;
76115;SDS011;64847;45.778;12.802;2023-07-13T12:07:06;2.22;;;2.13;;
76115;SDS011;64847;45.778;12.802;2023-07-13T12:09:37;2.10;;;2.00;;
76115;SDS011;64847;45.778;12.802;2023-07-13T12:12:03;3.38;;;2.33;;
76115;SDS011;64847;45.778;12.802;2023-07-13T12:14:33;2.50;;;2.28;;
76115;SDS011;64847;45.778;12.802;2023-07-13T12:16:59;2.60;;;2.30;;
76115;SDS011;64847;45.778;12.802;2023-07-13T12:19:26;3.00;;;2.50;;
76115;SDS011;64847;45.778;12.802;2023-07-13T12:21:56;2.80;;;2.60;;
76115;SDS011;64847;45.778;12.802;2023-07-13T12:24:22;2.95;;;2.70;;
76115;SDS011;64847;45.778;12.802;2023-07-13T12:26:53;2.40;;;2.30;;
76115;SDS011;64847;45.778;12.802;2023-07-13T12:29:25;3.45;;;3.20;;
76115;SDS011;64847;45.778;12.802;2023-07-13T12:31:51;2.90;;;2.70;;
76115;SDS011;64847;45.778;12.802;2023-07-13T12:34:21;3.13;;;2.90;;
76115;SDS011;64847;45.778;12.802;2023-07-13T12:37:01;2.72;;;2.58;;
76115;SDS011;64847;45.778;12.802;2023-07-13T12:39:34;3.38;;;3.05;;
76115;SDS011;64847;45.778;12.802;2023-07-13T12:42:23;3.10;;;2.90;;
76115;SDS011;64847;45.778;12.802;2023-07-13T12:44:56;3.13;;;2.90;;
76115;SDS011;64847;45.778;12.802;2023-07-13T12:47:26;3.08;;;2.88;;
76115;SDS011;64847;45.778;12.802;2023-07-13T12:49:56;3.20;;;3.00;;
76115;SDS011;64847;45.778;12.802;2023-07-13T12:52:33;3.13;;;2.92;;
76115;SDS011;64847;45.778;12.802;2023-07-13T12:55:04;2.97;;;2.83;;
76115;SDS011;64847;45.778;12.802;2023-07-13T12:57:41;2.70;;;2.60;;
76115;SDS011;64847;45.778;12.802;2023-07-13T13:02:56;3.15;;;3.00;;
76115;SDS011;64847;45.778;12.802;2023-07-13T13:05:25;3.03;;;2.90;;
76115;SDS011;64847;45.778;12.802;2023-07-13T13:07:51;3.35;;;3.15;;
76115;SDS011;64847;45.778;12.802;2023-07-13T13:10:16;4.05;;;3.00;;
76115;SDS011;64847;45.778;12.802;2023-07-13T13:12:42;3.75;;;3.47;;
76115;SDS011;64847;45.778;12.802;2023-07-13T13:15:08;4.47;;;3.60;;
76115;SDS011;64847;45.778;12.802;2023-07-13T13:17:34;3.33;;;3.13;;
76115;SDS011;64847;45.778;12.802;2023-07-13T13:20:00;3.42;;;3.20;;
76115;SDS011;64847;45.778;12.802;2023-07-13T13:22:25;3.28;;;2.95;;
76115;SDS011;64847;45.778;12.802;2023-07-13T13:24:51;3.35;;;3.08;;
76115;SDS011;64847;45.778;12.802;2023-07-13T13:27:18;3.15;;;2.95;;
76115;SDS011;64847;45.778;12.802;2023-07-13T13:29:45;3.55;;;3.28;;
76115;SDS011;64847;45.778;12.802;2023-07-13T13:32:11;3.30;;;3.10;;
76115;SDS011;64847;45.778;12.802;2023-07-13T13:34:38;3.45;;;3.25;;
76115;SDS011;64847;45.778;12.802;2023-07-13T13:37:04;3.78;;;3.42;;
76115;SDS011;64847;45.778;12.802;2023-07-13T13:39:40;3.55;;;3.30;;
76115;SDS011;64847;45.778;12.802;2023-07-13T13:42:08;3.50;;;3.30;;
76115;SDS011;64847;45.778;12.802;2023-07-13T13:44:34;3.95;;;3.45;;
76115;SDS011;64847;45.778;12.802;2023-07-13T13:47:00;3.88;;;3.58;;
76115;SDS011;64847;45.778;12.802;2023-07-13T13:49:26;3.50;;;3.20;;
76115;SDS011;64847;45.778;12.802;2023-07-13T13:51:52;3.85;;;3.55;;
76115;SDS011;64847;45.778;12.802;2023-07-13T13:54:19;3.70;;;3.40;;
76115;SDS011;64847;45.778;12.802;2023-07-13T13:56:46;3.78;;;3.50;;
76115;SDS011;64847;45.778;12.802;2023-07-13T13:59:12;3.83;;;3.53;;
76115;SDS011;64847;45.778;12.802;2023-07-13T14:01:39;4.55;;;3.53;;
76115;SDS011;64847;45.778;12.802;2023-07-13T14:04:06;4.03;;;3.72;;
76115;SDS011;64847;45.778;12.802;2023-07-13T14:06:32;3.45;;;3.25;;
76115;SDS011;64847;45.778;12.802;2023-07-13T14:09:01;3.88;;;3.53;;
76115;SDS011;64847;45.778;12.802;2023-07-13T14:11:27;5.05;;;4.07;;
76115;SDS011;64847;45.778;12.802;2023-07-13T14:13:55;4.10;;;3.80;;
76115;SDS011;64847;45.778;12.802;2023-07-13T14:16:24;4.30;;;3.90;;
76115;SDS011;64847;45.778;12.802;2023-07-13T14:18:53;4.53;;;3.80;;
76115;SDS011;64847;45.778;12.802;2023-07-13T14:21:21;4.10;;;3.80;;
76115;SDS011;64847;45.778;12.802;2023-07-13T14:23:47;4.20;;;3.90;;
76115;SDS011;64847;45.778;12.802;2023-07-13T14:26:17;3.67;;;3.38;;
76115;SDS011;64847;45.778;12.802;2023-07-13T14:28:45;4.28;;;3.88;;
76115;SDS011;64847;45.778;12.802;2023-07-13T14:31:13;4.18;;;3.78;;
76115;SDS011;64847;45.778;12.802;2023-07-13T14:33:39;3.78;;;3.58;;
76115;SDS011;64847;45.778;12.802;2023-07-13T14:36:12;4.25;;;3.95;;
76115;SDS011;64847;45.778;12.802;2023-07-13T14:38:54;3.80;;;3.50;;
76115;SDS011;64847;45.778;12.802;2023-07-13T14:41:19;4.25;;;3.85;;
76115;SDS011;64847;45.778;12.802;2023-07-13T14:43:45;5.70;;;3.92;;
76115;SDS011;64847;45.778;12.802;2023-07-13T14:46:32;4.47;;;4.18;;
76115;SDS011;64847;45.778;12.802;2023-07-13T14:49:03;5.78;;;4.10;;
76115;SDS011;64847;45.778;12.802;2023-07-13T14:51:31;4.50;;;3.90;;
76115;SDS011;64847;45.778;12.802;2023-07-13T14:53:58;4.28;;;3.88;;
76115;SDS011;64847;45.778;12.802;2023-07-13T14:56:27;5.97;;;4.22;;
76115;SDS011;64847;45.778;12.802;2023-07-13T14:58:52;4.10;;;3.70;;
76115;SDS011;64847;45.778;12.802;2023-07-13T15:01:18;3.85;;;3.55;;
76115;SDS011;64847;45.778;12.802;2023-07-13T15:03:44;3.92;;;3.63;;
76115;SDS011;64847;45.778;12.802;2023-07-13T15:06:12;3.70;;;3.35;;
76115;SDS011;64847;45.778;12.802;2023-07-13T15:08:38;4.80;;;3.72;;
76115;SDS011;64847;45.778;12.802;2023-07-13T15:11:05;5.10;;;3.78;;
76115;SDS011;64847;45.778;12.802;2023-07-13T15:13:30;4.63;;;3.85;;
76115;SDS011;64847;45.778;12.802;2023-07-13T15:15:56;3.78;;;3.58;;
76115;SDS011;64847;45.778;12.802;2023-07-13T15:18:22;3.70;;;3.45;;
76115;SDS011;64847;45.778;12.802;2023-07-13T15:20:49;4.78;;;3.50;;
76115;SDS011;64847;45.778;12.802;2023-07-13T15:23:15;4.18;;;3.67;;
76115;SDS011;64847;45.778;12.802;2023-07-13T15:25:42;4.55;;;3.75;;
76115;SDS011;64847;45.778;12.802;2023-07-13T15:28:09;4.03;;;3.67;;
76115;SDS011;64847;45.778;12.802;2023-07-13T15:30:45;4.30;;;3.78;;
76115;SDS011;64847;45.778;12.802;2023-07-13T15:35:44;4.57;;;3.83;;
76115;SDS011;64847;45.778;12.802;2023-07-13T15:38:15;4.00;;;3.70;;
76115;SDS011;64847;45.778;12.802;2023-07-13T15:40:47;3.90;;;3.55;;
76115;SDS011;64847;45.778;12.802;2023-07-13T15:43:14;3.92;;;3.60;;
76115;SDS011;64847;45.778;12.802;2023-07-13T15:45:40;5.85;;;3.60;;
76115;SDS011;64847;45.778;12.802;2023-07-13T15:48:18;4.65;;;3.90;;
76115;SDS011;64847;45.778;12.802;2023-07-13T15:50:51;4.15;;;3.60;;
76115;SDS011;64847;45.778;12.802;2023-07-13T15:53:39;3.53;;;3.22;;
76115;SDS011;64847;45.778;12.802;2023-07-13T15:56:25;3.80;;;3.50;;
76115;SDS011;64847;45.778;12.802;2023-07-13T15:58:50;4.03;;;3.42;;
76115;SDS011;64847;45.778;12.802;2023-07-13T16:01:17;4.15;;;3.78;;
76115;SDS011;64847;45.778;12.802;2023-07-13T16:03:43;4.15;;;3.78;;
76115;SDS011;64847;45.778;12.802;2023-07-13T16:06:19;5.15;;;3.50;;
76115;SDS011;64847;45.778;12.802;2023-07-13T16:08:47;4.10;;;3.70;;
76115;SDS011;64847;45.778;12.802;2023-07-13T16:11:26;3.85;;;3.45;;
76115;SDS011;64847;45.778;12.802;2023-07-13T16:13:53;3.50;;;3.20;;
76115;SDS011;64847;45.778;12.802;2023-07-13T16:16:23;3.90;;;3.60;;
76115;SDS011;64847;45.778;12.802;2023-07-13T16:18:56;5.40;;;4.03;;
76115;SDS011;64847;45.778;12.802;2023-07-13T16:21:23;4.05;;;3.75;;
76115;SDS011;64847;45.778;12.802;2023-07-13T16:23:50;4.88;;;4.28;;
76115;SDS011;64847;45.778;12.802;2023-07-13T16:26:27;4.45;;;4.05;;
76115;SDS011;64847;45.778;12.802;2023-07-13T16:29:14;5.45;;;4.35;;
76115;SDS011;64847;45.778;12.802;2023-07-13T16:31:42;4.60;;;4.05;;
76115;SDS011;64847;45.778;12.802;2023-07-13T16:34:29;6.43;;;4.10;;
76115;SDS011;64847;45.778;12.802;2023-07-13T16:36:58;4.40;;;3.90;;
76115;SDS011;64847;45.778;12.802;2023-07-13T16:39:25;4.60;;;4.20;;